Time;durP1;ratioP1;P1;durP2;ratioP2;P2;SDS_P1;SDS_P2;PMS_P1;PMS_P2;Temp;Humidity;BMP_temperature;BMP_pressure;BME280_temperature;BME280_humidity;BME280_pressure;Samples;Min_cycle;Max_cycle;Signal;HPM_P1;HPM_P2
2023/03/28 00:01:23;;;;;;;7.40;1.40;;;;;;;-1.32;100.00;102791.13;5015658;28;20037;-80
2023/03/28 00:03:51;;;;;;;9.32;1.60;;;;;;;-1.35;100.00;102788.53;4998662;28;20428;-80
2023/03/28 00:06:17;;;;;;;8.82;1.13;;;;;;;-1.37;100.00;102792.03;5015650;28;20042;-81
2023/03/28 00:08:44;;;;;;;7.50;1.60;;;;;;;-1.41;100.00;102791.22;4999423;28;20052;-80
2023/03/28 00:11:17;;;;;;;7.63;1.52;;;;;;;-1.43;100.00;102795.59;4998945;28;20038;-79
2023/03/28 00:13:44;;;;;;;5.78;1.75;;;;;;;-1.45;100.00;102793.00;5034091;28;20022;-80
2023/03/28 00:16:13;;;;;;;4.88;1.10;;;;;;;-1.44;100.00;102797.31;5015197;28;20029;-80
2023/03/28 00:18:40;;;;;;;7.10;1.83;;;;;;;-1.46;100.00;102804.31;5033219;28;20030;-81
2023/03/28 00:21:18;;;;;;;7.38;1.40;;;;;;;-1.48;100.00;102800.88;5000547;28;20064;-80
2023/03/28 00:23:44;;;;;;;6.03;1.45;;;;;;;-1.48;100.00;102805.19;5019093;28;20040;-78
2023/03/28 00:26:12;;;;;;;6.05;1.42;;;;;;;-1.50;100.00;102799.13;5036524;28;20026;-79
2023/03/28 00:28:38;;;;;;;4.78;1.30;;;;;;;-1.50;100.00;102799.13;5018763;28;20042;-79
2023/03/28 00:31:07;;;;;;;3.63;1.23;;;;;;;-1.51;100.00;102800.00;5019113;28;20513;-78
2023/03/28 00:33:33;;;;;;;10.65;2.15;;;;;;;-1.51;100.00;102792.16;5036808;28;20472;-80
2023/03/28 00:35:58;;;;;;;6.53;1.52;;;;;;;-1.57;100.00;102790.47;5036333;28;20458;-79
2023/03/28 00:38:26;;;;;;;6.22;1.50;;;;;;;-1.60;100.00;102793.09;5018804;28;20091;-79
2023/03/28 00:40:54;;;;;;;6.70;1.50;;;;;;;-1.65;100.00;102790.53;5036343;28;20120;-80
2023/03/28 00:43:44;;;;;;;7.40;2.17;;;;;;;-1.70;100.00;102796.66;5036557;28;20092;-81
2023/03/28 00:46:15;;;;;;;2.47;0.85;;;;;;;-1.75;100.00;102793.25;5036316;28;20037;-81
2023/03/28 00:48:51;;;;;;;6.07;1.33;;;;;;;-1.73;100.00;102799.31;5052756;28;20129;-80
2023/03/28 00:51:19;;;;;;;6.03;1.15;;;;;;;-1.74;100.00;102785.41;5018635;28;20372;-79
2023/03/28 00:53:45;;;;;;;7.43;1.52;;;;;;;-1.78;100.00;102787.19;5036498;28;20033;-81
2023/03/28 00:56:14;;;;;;;6.65;2.05;;;;;;;-1.82;100.00;102782.84;5036805;28;20056;-80
2023/03/28 00:58:42;;;;;;;4.22;1.35;;;;;;;-1.83;100.00;102783.72;5036271;28;20037;-80
2023/03/28 01:01:12;;;;;;;4.78;0.93;;;;;;;-1.87;100.00;102782.00;5019180;28;20029;-80
2023/03/28 01:03:40;;;;;;;5.18;1.55;;;;;;;-1.92;100.00;102781.19;5036335;28;20481;-80
2023/03/28 01:06:08;;;;;;;5.13;1.33;;;;;;;-1.97;100.00;102782.94;5052010;28;20466;-80
2023/03/28 01:08:37;;;;;;;7.00;1.40;;;;;;;-2.00;100.00;102780.34;5036685;28;20041;-79
2023/03/28 01:11:05;;;;;;;4.90;1.10;;;;;;;-2.05;100.00;102771.72;5035951;28;20034;-78
2023/03/28 01:13:33;;;;;;;2.35;1.10;;;;;;;-2.10;100.00;102774.34;5035891;28;20033;-78
2023/03/28 01:16:01;;;;;;;2.88;1.38;;;;;;;-2.15;100.00;102777.00;5035681;28;20033;-79
2023/03/28 01:18:29;;;;;;;3.53;1.20;;;;;;;-2.17;100.00;102776.13;5035787;28;20516;-79
2023/03/28 01:21:35;;;;;;;4.55;1.50;;;;;;;-2.24;100.00;102761.41;5035421;28;20041;-79
2023/03/28 01:24:12;;;;;;;4.65;1.17;;;;;;;-2.28;100.00;102759.69;5018505;28;20029;-79
2023/03/28 01:26:49;;;;;;;7.07;1.83;;;;;;;-2.33;100.00;102762.31;5018173;28;20393;-79
2023/03/28 01:29:59;;;;;;;5.20;1.55;;;;;;;-2.36;100.00;102761.47;5035969;28;20080;-79
2023/03/28 01:32:46;;;;;;;6.25;1.63;;;;;;;-2.35;100.00;102761.44;5035411;28;20041;-79
2023/03/28 01:35:26;;;;;;;6.00;1.60;;;;;;;-2.33;100.00;102761.44;5018231;28;20397;-79
2023/03/28 01:38:11;;;;;;;3.65;1.35;;;;;;;-2.33;100.00;102756.22;5035467;28;20036;-80
2023/03/28 01:40:55;;;;;;;8.07;1.70;;;;;;;-2.28;100.00;102766.63;5035475;28;20032;-80
2023/03/28 01:43:44;;;;;;;5.93;1.25;;;;;;;-2.26;100.00;102762.28;5035745;28;20500;-79
2023/03/28 01:46:21;;;;;;;10.05;1.48;;;;;;;-2.25;100.00;102764.03;5035189;28;20493;-79
2023/03/28 01:49:46;;;;;;;5.70;1.58;;;;;;;-2.23;100.00;102760.50;5035583;28;20489;-78
2023/03/28 01:52:59;;;;;;;3.83;1.40;;;;;;;-2.22;100.00;102759.66;4954658;29;20082;-80
2023/03/28 01:55:33;;;;;;;2.58;1.30;;;;;;;-2.22;100.00;102762.25;4981168;28;20053;-79
2023/03/28 01:58:04;;;;;;;5.50;1.48;;;;;;;-2.26;100.00;102770.97;5035382;28;20437;-79
2023/03/28 02:01:04;;;;;;;5.78;1.60;;;;;;;-2.32;100.00;102763.19;5035422;28;20031;-81
2023/03/28 02:03:36;;;;;;;4.65;1.55;;;;;;;-2.35;100.00;102769.28;5020455;28;20507;-78
2023/03/28 02:06:07;;;;;;;1.83;1.40;;;;;;;-2.40;100.00;102763.22;5034965;28;20083;-80
2023/03/28 02:08:36;;;;;;;5.73;2.00;;;;;;;-2.44;100.00;102766.72;5035471;28;20021;-80
2023/03/28 02:11:01;;;;;;;3.50;1.30;;;;;;;-2.46;100.00;102765.00;5034870;28;20278;-80
2023/03/28 02:13:33;;;;;;;3.15;1.20;;;;;;;-2.47;100.00;102763.28;5034850;28;20111;-80
2023/03/28 02:16:00;;;;;;;2.00;1.23;;;;;;;-2.46;100.00;102762.38;5034358;28;20121;-79
2023/03/28 02:18:33;;;;;;;4.28;1.20;;;;;;;-2.49;100.00;102758.06;5034572;28;20036;-79
2023/03/28 02:21:04;;;;;;;5.18;1.45;;;;;;;-2.52;100.00;102751.13;5017205;28;20350;-79
2023/03/28 02:23:36;;;;;;;8.48;1.60;;;;;;;-2.53;100.00;102748.53;5035050;28;20029;-80
2023/03/28 02:26:01;;;;;;;;;;;;;;;-2.57;100.00;102747.66;5035020;28;20458;-80
2023/03/28 02:28:30;;;;;;;7.05;1.63;;;;;;;-2.62;100.00;102746.81;5016901;28;19913;-79
2023/03/28 02:30:56;;;;;;;5.88;1.38;;;;;;;-2.67;100.00;102746.84;5034179;28;20388;-80
2023/03/28 02:33:42;;;;;;;2.53;1.27;;;;;;;-2.71;100.00;102745.13;5016764;28;20038;-79
2023/03/28 02:36:16;;;;;;;6.95;1.55;;;;;;;-2.74;100.00;102732.13;5033976;28;20109;-79
2023/03/28 02:38:48;;;;;;;4.85;1.13;;;;;;;-2.77;100.00;102741.69;5034253;28;20033;-79
2023/03/28 02:41:22;;;;;;;2.40;1.10;;;;;;;-2.83;100.00;102738.22;5034184;28;20124;-80
2023/03/28 02:43:56;;;;;;;7.50;1.55;;;;;;;-2.82;100.00;102744.31;5033913;28;20061;-80
2023/03/28 02:46:28;;;;;;;3.15;1.17;;;;;;;-2.79;100.00;102744.31;5033501;28;20450;-80
2023/03/28 02:49:14;;;;;;;8.52;1.50;;;;;;;-2.80;100.00;102739.97;5034495;28;20041;-81
2023/03/28 02:51:55;;;;;;;4.82;1.95;;;;;;;-2.84;100.00;102746.94;5033086;28;20057;-80
2023/03/28 02:54:50;;;;;;;8.95;1.58;;;;;;;-2.80;100.00;102746.94;5017047;28;20065;-80
2023/03/28 02:58:00;;;;;;;8.60;1.80;;;;;;;-2.76;100.00;102739.09;5034441;28;20026;-80
2023/03/28 03:00:25;;;;;;;2.95;1.10;;;;;;;-2.76;100.00;102733.88;4992140;28;20462;-80
2023/03/28 03:02:51;;;;;;;6.35;1.40;;;;;;;-2.79;100.00;102736.50;5008076;28;20047;-80
2023/03/28 03:05:19;;;;;;;7.35;2.05;;;;;;;-2.78;100.00;102729.53;5034038;28;20057;-80
2023/03/28 03:07:45;;;;;;;7.40;1.90;;;;;;;-2.74;100.00;102732.13;5033743;28;20026;-80
2023/03/28 03:10:13;;;;;;;7.28;1.60;;;;;;;-2.73;100.00;102735.56;5033909;28;20045;-80
2023/03/28 03:12:39;;;;;;;6.82;1.63;;;;;;;-2.69;100.00;102745.13;5033633;28;20029;-80
2023/03/28 03:15:06;;;;;;;5.18;1.60;;;;;;;-2.63;100.00;102733.81;5033432;28;20041;-79
2023/03/28 03:17:32;;;;;;;7.00;1.60;;;;;;;-2.60;100.00;102734.63;5033496;28;20033;-80
2023/03/28 03:19:58;;;;;;;6.05;1.65;;;;;;;-2.60;100.00;102733.78;5033644;28;20036;-80
2023/03/28 03:22:23;;;;;;;5.63;2.10;;;;;;;-2.62;100.00;102736.41;5033645;28;20378;-80
2023/03/28 03:24:52;;;;;;;6.45;1.90;;;;;;;-2.65;100.00;102731.22;5033902;28;20029;-80
2023/03/28 03:27:20;;;;;;;4.72;1.38;;;;;;;-2.67;100.00;102726.00;5033919;28;20061;-80
2023/03/28 03:29:47;;;;;;;4.47;1.98;;;;;;;-2.68;100.00;102732.09;5033436;28;20473;-80
2023/03/28 03:32:13;;;;;;;7.00;1.77;;;;;;;-2.67;100.00;102722.53;5033078;28;20025;-81
2023/03/28 03:34:40;;;;;;;6.38;1.70;;;;;;;-2.65;100.00;102723.38;5033375;28;20033;-80
2023/03/28 03:37:07;;;;;;;4.78;1.40;;;;;;;-2.64;100.00;102722.53;5033522;28;20470;-80
2023/03/28 03:39:34;;;;;;;4.32;1.90;;;;;;;-2.63;100.00;102723.38;5033933;28;20033;-81
2023/03/28 03:42:00;;;;;;;6.68;1.70;;;;;;;-2.62;100.00;102710.34;5033191;28;20132;-81
2023/03/28 03:44:25;;;;;;;6.25;1.80;;;;;;;-2.60;100.00;102712.94;5048282;28;20481;-80
2023/03/28 03:46:51;;;;;;;4.32;1.80;;;;;;;-2.61;100.00;102701.66;5016810;28;20038;-80
2023/03/28 03:49:16;;;;;;;2.83;1.52;;;;;;;-2.59;100.00;102704.25;5033667;28;20025;-80
2023/03/28 03:51:41;;;;;;;3.40;1.60;;;;;;;-2.62;100.00;102710.34;5015409;28;20049;-80
2023/03/28 03:54:07;;;;;;;5.53;1.88;;;;;;;-2.65;100.00;102715.56;5033573;28;20036;-80
2023/03/28 03:56:32;;;;;;;5.55;2.50;;;;;;;-2.66;100.00;102706.91;5050162;28;20045;-80
2023/03/28 03:58:58;;;;;;;7.15;1.90;;;;;;;-2.68;100.00;102720.81;5019680;28;20121;-80
2023/03/28 04:01:24;;;;;;;3.28;1.83;;;;;;;-2.71;100.00;102710.41;5037302;28;20098;-80
2023/03/28 04:03:50;;;;;;;4.88;2.00;;;;;;;-2.73;100.00;102717.34;5037693;28;20106;-80
2023/03/28 04:06:16;;;;;;;5.68;2.25;;;;;;;-2.74;100.00;102713.88;5037126;28;20041;-80
2023/03/28 04:08:41;;;;;;;2.42;1.60;;;;;;;-2.75;100.00;102716.50;5037161;28;20109;-80
2023/03/28 04:11:09;;;;;;;7.43;2.10;;;;;;;-2.78;100.00;102711.28;5037403;28;20025;-80
2023/03/28 04:13:34;;;;;;;10.98;1.90;;;;;;;-2.83;100.00;102712.16;5037001;28;20496;-80
2023/03/28 04:16:00;;;;;;;5.35;1.92;;;;;;;-2.86;100.00;102708.72;5036863;28;20061;-80
2023/03/28 04:18:28;;;;;;;6.80;2.20;;;;;;;-2.88;100.00;102713.94;5051874;28;20393;-80
2023/03/28 04:20:57;;;;;;;6.25;2.00;;;;;;;-2.89;100.00;102711.34;5036837;28;20127;-80
2023/03/28 04:23:25;;;;;;;4.97;1.80;;;;;;;-2.88;100.00;102710.44;5036787;28;20033;-80
2023/03/28 04:25:54;;;;;;;9.85;2.15;;;;;;;-2.87;100.00;102702.63;5037066;28;20043;-80
2023/03/28 04:28:24;;;;;;;7.30;1.98;;;;;;;-2.84;100.00;102704.38;5037198;28;20037;-79
2023/03/28 04:30:53;;;;;;;4.82;1.90;;;;;;;-2.79;100.00;102714.75;5036979;28;20036;-80
2023/03/28 04:33:23;;;;;;;7.68;2.58;;;;;;;-2.79;100.00;102710.44;5036798;28;20072;-81
2023/03/28 04:35:55;;;;;;;3.53;1.88;;;;;;;-2.76;100.00;102709.53;5020084;28;20068;-80
2023/03/28 04:38:24;;;;;;;4.45;2.03;;;;;;;-2.77;100.00;102703.47;5018929;28;20032;-80
2023/03/28 04:40:52;;;;;;;8.07;1.92;;;;;;;-2.71;100.00;102702.56;5036496;28;20418;-81
2023/03/28 04:43:18;;;;;;;3.78;1.60;;;;;;;-2.65;100.00;102715.56;5037149;28;20029;-80
2023/03/28 04:45:44;;;;;;;10.43;2.42;;;;;;;-2.63;100.00;102713.81;5018972;28;20535;-80
2023/03/28 04:48:09;;;;;;;9.82;2.47;;;;;;;-2.62;100.00;102707.72;5019094;28;20112;-80
2023/03/28 04:50:34;;;;;;;6.88;2.20;;;;;;;-2.56;100.00;102714.66;5036241;28;20029;-80
2023/03/28 04:53:00;;;;;;;9.15;2.00;;;;;;;-2.49;100.00;102711.16;5036942;28;20057;-81
2023/03/28 04:55:25;;;;;;;11.15;2.95;;;;;;;-2.45;100.00;102706.75;5035942;28;20041;-81
2023/03/28 04:57:51;;;;;;;5.85;2.08;;;;;;;-2.42;100.00;102714.56;5036559;28;20041;-80
2023/03/28 05:00:17;;;;;;;3.47;1.85;;;;;;;-2.40;100.00;102713.69;5002019;28;20057;-81
2023/03/28 05:02:42;;;;;;;9.95;3.08;;;;;;;-2.33;100.00;102709.28;5036117;28;20116;-81
2023/03/28 05:05:08;;;;;;;6.10;1.80;;;;;;;-2.24;100.00;102711.84;5035832;28;20533;-82
2023/03/28 05:07:34;;;;;;;6.75;2.15;;;;;;;-2.17;100.00;102716.13;5035104;28;20476;-78
2023/03/28 05:09:59;;;;;;;7.88;3.67;;;;;;;-2.10;100.00;102716.13;5018339;28;20120;-82
2023/03/28 05:12:46;;;;;;;8.50;3.13;;;;;;;-2.07;100.00;102713.47;5036670;28;20057;-79
2023/03/28 05:15:12;;;;;;;5.95;2.40;;;;;;;-2.08;100.00;102711.72;5036385;28;20041;-82
2023/03/28 05:17:39;;;;;;;6.95;2.40;;;;;;;-2.11;100.00;102707.41;5051217;28;20034;-79
2023/03/28 05:20:08;;;;;;;8.65;2.28;;;;;;;-2.13;100.00;102714.38;5035726;28;20040;-80
2023/03/28 05:22:35;;;;;;;3.30;1.95;;;;;;;-2.12;100.00;102716.09;5035617;28;20148;-79
2023/03/28 05:25:00;;;;;;;3.55;2.10;;;;;;;-2.08;100.00;102720.41;5035562;28;20038;-80
2023/03/28 05:27:26;;;;;;;6.00;2.03;;;;;;;-2.03;100.00;102723.88;5035542;28;20036;-80
2023/03/28 05:29:51;;;;;;;8.45;2.30;;;;;;;-1.98;100.00;102724.69;5035666;28;20477;-80
2023/03/28 05:32:17;;;;;;;5.13;2.20;;;;;;;-1.94;100.00;102728.16;5035586;28;20032;-80
2023/03/28 05:34:42;;;;;;;12.65;2.30;;;;;;;-1.88;100.00;102729.81;5035173;28;20041;-78
2023/03/28 05:37:08;;;;;;;4.18;2.22;;;;;;;-1.80;100.00;102721.06;5035514;28;20029;-80
2023/03/28 05:39:33;;;;;;;7.22;3.50;;;;;;;-1.70;100.00;102732.28;5035747;28;20479;-81
2023/03/28 05:41:59;;;;;;;7.72;3.15;;;;;;;-1.63;100.00;102726.16;5017751;28;20071;-82
2023/03/28 05:44:24;;;;;;;8.32;2.38;;;;;;;-1.51;100.00;102730.34;5035462;28;20048;-78
2023/03/28 05:46:50;;;;;;;7.30;2.30;;;;;;;-1.40;100.00;102727.66;5017920;28;20033;-77
2023/03/28 05:49:15;;;;;;;9.68;2.22;;;;;;;-1.32;100.00;102730.19;5035171;28;20036;-78
2023/03/28 05:51:41;;;;;;;11.55;2.85;;;;;;;-1.24;100.00;102728.34;5035131;28;20054;-78
2023/03/28 05:54:06;;;;;;;4.40;2.33;;;;;;;-1.20;100.00;102724.81;5034953;28;20067;-80
2023/03/28 05:56:34;;;;;;;10.95;3.28;;;;;;;-1.18;100.00;102724.81;5035570;28;20488;-79
2023/03/28 05:59:00;;;;;;;9.88;3.15;;;;;;;-1.14;100.00;102726.50;5033949;28;20044;-79
2023/03/28 06:01:27;;;;;;;13.35;3.00;;;;;;;-1.07;100.00;102726.41;5035323;28;20030;-81
2023/03/28 06:03:53;;;;;;;3.17;2.30;;;;;;;-0.97;100.00;102724.56;5035588;28;20034;-79
2023/03/28 06:06:19;;;;;;;9.68;2.90;;;;;;;-0.82;100.00;102722.63;5017070;28;20112;-76
2023/03/28 06:08:44;;;;;;;12.82;2.50;;;;;;;-0.72;100.00;102726.88;5034971;28;20041;-76
2023/03/28 06:11:10;;;;;;;7.80;2.53;;;;;;;-0.57;100.00;102728.41;5034778;28;20072;-77
2023/03/28 06:13:36;;;;;;;7.18;2.55;;;;;;;-0.45;100.00;102730.88;5035109;28;20026;-75
2023/03/28 06:16:01;;;;;;;5.00;2.70;;;;;;;-0.30;100.00;102734.16;5034583;28;20041;-80
2023/03/28 06:18:27;;;;;;;10.38;2.67;;;;;;;-0.18;100.00;102731.34;5034714;28;20086;-82
2023/03/28 06:20:52;;;;;;;15.23;3.42;;;;;;;-0.02;100.00;102731.97;5034937;28;20034;-78
2023/03/28 06:23:18;;;;;;;7.47;2.65;;;;;;;0.13;100.00;102728.25;5034528;28;20416;-78
2023/03/28 06:25:43;;;;;;;12.85;3.25;;;;;;;0.28;100.00;102727.13;5034115;28;20042;-78
2023/03/28 06:28:08;;;;;;;8.20;2.40;;;;;;;0.40;100.00;102732.13;5034524;28;20461;-78
2023/03/28 06:30:34;;;;;;;16.90;2.90;;;;;;;0.52;100.00;102726.69;5034186;28;20438;-79
2023/03/28 06:32:59;;;;;;;10.75;2.78;;;;;;;0.61;100.00;102728.28;5034188;28;20025;-79
2023/03/28 06:35:24;;;;;;;14.77;3.03;;;;;;;0.73;100.00;102723.69;5033918;28;20389;-80
2023/03/28 06:37:50;;;;;;;10.18;3.20;;;;;;;0.85;100.00;102715.59;5033935;28;20450;-79
2023/03/28 06:40:15;;;;;;;11.15;3.03;;;;;;;1.00;100.00;102719.66;5034137;28;20436;-80
2023/03/28 06:42:42;;;;;;;13.82;3.17;;;;;;;1.18;100.00;102718.41;5034125;28;20041;-79
2023/03/28 06:45:07;;;;;;;15.90;3.58;;;;;;;1.34;100.00;102721.59;5033994;28;20037;-79
2023/03/28 06:47:33;;;;;;;8.55;2.85;;;;;;;1.50;100.00;102719.50;5033830;28;20037;-79
2023/03/28 06:49:58;;;;;;;13.82;2.90;;;;;;;1.69;100.00;102726.06;5033880;28;20109;-79
2023/03/28 06:52:24;;;;;;;15.43;3.45;;;;;;;1.83;100.00;102723.09;5033647;28;20065;-80
2023/03/28 06:54:50;;;;;;;19.23;2.60;;;;;;;2.03;100.00;102724.38;5033617;28;20029;-79
2023/03/28 06:57:15;;;;;;;10.88;2.40;;;;;;;2.21;100.00;102725.69;5015930;28;20055;-79
2023/03/28 06:59:41;;;;;;;5.80;2.45;;;;;;;2.38;100.00;102730.53;5033730;28;20523;-80
2023/03/28 07:02:09;;;;;;;8.63;2.28;;;;;;;2.51;100.00;102723.16;5033805;28;20091;-78
2023/03/28 07:04:35;;;;;;;11.00;2.38;;;;;;;2.67;100.00;102728.88;5015910;28;20037;-78
2023/03/28 07:07:00;;;;;;;10.00;2.40;;;;;;;2.78;100.00;102726.84;5033251;28;20049;-79
2023/03/28 07:09:26;;;;;;;10.80;2.25;;;;;;;2.86;100.00;102719.56;5033222;28;20025;-79
2023/03/28 07:11:51;;;;;;;9.60;2.42;;;;;;;2.96;100.00;102710.53;5033446;28;20033;-79
2023/03/28 07:14:17;;;;;;;14.18;3.10;;;;;;;3.08;100.00;102716.34;5033756;28;20079;-80
2023/03/28 07:16:42;;;;;;;15.93;2.72;;;;;;;3.21;100.00;102714.22;5033601;28;20044;-78
2023/03/28 07:19:08;;;;;;;7.40;2.38;;;;;;;3.28;100.00;102711.34;5033255;28;20037;-80
2023/03/28 07:21:33;;;;;;;12.95;2.60;;;;;;;3.42;100.00;102712.69;5033870;28;20077;-80
2023/03/28 07:23:59;;;;;;;8.07;2.10;;;;;;;3.53;100.00;102713.25;5033490;28;20079;-81
2023/03/28 07:26:26;;;;;;;5.85;2.25;;;;;;;3.73;100.00;102711.75;5015852;28;20135;-80
2023/03/28 07:28:53;;;;;;;5.15;2.08;;;;;;;3.97;100.00;102720.63;5033457;28;20044;-80
2023/03/28 07:31:19;;;;;;;8.23;2.47;;;;;;;4.16;100.00;102713.84;5032915;28;20033;-80
2023/03/28 07:33:48;;;;;;;16.52;3.13;;;;;;;4.28;100.00;102714.34;5033459;28;20488;-80
2023/03/28 07:36:16;;;;;;;11.18;2.65;;;;;;;4.44;100.00;102717.31;5033272;28;20541;-79
2023/03/28 07:38:42;;;;;;;6.70;2.40;;;;;;;4.56;100.00;102717.75;5033278;28;20025;-77
2023/03/28 07:41:07;;;;;;;9.43;3.28;;;;;;;4.67;100.00;102716.50;5033113;28;20034;-79
2023/03/28 07:43:33;;;;;;;12.68;2.60;;;;;;;4.76;100.00;102708.25;5033716;28;20376;-79
2023/03/28 07:46:05;;;;;;;6.70;3.08;;;;;;;4.87;100.00;102699.97;5033825;28;20083;-79
2023/03/28 07:48:31;;;;;;;10.68;2.65;;;;;;;4.90;100.00;102702.50;5034042;28;20104;-76
2023/03/28 07:50:58;;;;;;;13.93;2.90;;;;;;;4.86;100.00;102690.31;5033225;28;20079;-76
2023/03/28 07:53:23;;;;;;;6.82;2.80;;;;;;;4.89;100.00;102696.34;5032740;28;20124;-81
2023/03/28 07:55:49;;;;;;;6.80;2.30;;;;;;;4.98;100.00;102700.41;5033321;28;20124;-78
2023/03/28 07:58:14;;;;;;;7.70;2.42;;;;;;;5.15;100.00;102702.44;5015546;28;20466;-77
2023/03/28 08:00:40;;;;;;;8.88;2.33;;;;;;;5.29;100.00;102708.03;5033435;28;20030;-77
2023/03/28 08:03:06;;;;;;;7.32;2.60;;;;;;;5.44;100.00;102711.00;5033127;28;20029;-78
2023/03/28 08:05:33;;;;;;;8.00;2.70;;;;;;;5.57;100.00;102700.81;5015353;28;20040;-76
2023/03/28 08:07:58;;;;;;;6.70;2.08;;;;;;;5.67;100.00;102715.38;5032761;28;20491;-75
2023/03/28 08:10:24;;;;;;;9.30;3.38;;;;;;;5.80;100.00;102710.47;5033082;28;20033;-78
2023/03/28 08:12:49;;;;;;;7.97;2.45;;;;;;;5.67;100.00;102712.72;5015599;28;20481;-77
2023/03/28 08:15:15;;;;;;;13.02;2.90;;;;;;;5.77;100.00;102710.59;5033284;28;20485;-77
2023/03/28 08:17:40;;;;;;;11.55;2.33;;;;;;;5.88;100.00;102708.38;5032625;28;20030;-76
2023/03/28 08:20:10;;;;;;;7.00;2.33;;;;;;;5.80;94.75;102715.75;5032817;28;20065;-76
2023/03/28 08:22:35;;;;;;;6.45;2.05;;;;;;;5.77;97.02;102703.50;5032616;28;20041;-76
2023/03/28 08:25:01;;;;;;;7.25;2.40;;;;;;;5.76;96.95;102707.09;5032908;28;20518;-76
2023/03/28 08:27:26;;;;;;;5.10;1.88;;;;;;;5.95;99.77;102707.19;5032908;28;20116;-76
2023/03/28 08:29:52;;;;;;;5.75;2.08;;;;;;;6.11;96.61;102701.31;5032926;28;20425;-76
2023/03/28 08:32:17;;;;;;;12.85;2.20;;;;;;;6.22;96.13;102712.28;5033408;28;20035;-76
2023/03/28 08:34:43;;;;;;;4.90;1.55;;;;;;;6.39;93.41;102706.28;5032581;28;20116;-76
2023/03/28 08:37:08;;;;;;;5.32;1.83;;;;;;;6.59;94.39;102708.03;5014997;28;20065;-76
2023/03/28 08:39:33;;;;;;;5.85;2.00;;;;;;;6.79;93.82;102706.31;5015150;28;20041;-76
2023/03/28 08:42:08;;;;;;;6.18;1.92;;;;;;;6.88;84.14;102696.19;5033382;28;20034;-77
2023/03/28 08:44:46;;;;;;;7.93;2.10;;;;;;;7.00;83.75;102708.00;5036987;28;20041;-76
2023/03/28 08:47:18;;;;;;;7.03;2.15;;;;;;;7.01;84.04;102703.53;5036318;28;20029;-77
2023/03/28 08:49:47;;;;;;;7.07;2.00;;;;;;;7.00;82.59;102701.81;5036611;28;20164;-76
2023/03/28 08:52:16;;;;;;;7.45;2.13;;;;;;;7.10;80.12;102704.91;5036156;28;20049;-77
2023/03/28 08:54:52;;;;;;;7.60;2.33;;;;;;;6.95;67.94;102702.03;5036007;28;20047;-77
2023/03/28 08:57:22;;;;;;;6.63;2.45;;;;;;;7.09;69.62;102708.47;5019050;28;20034;-76
2023/03/28 09:00:13;;;;;;;8.10;2.45;;;;;;;7.13;71.40;102697.69;5036240;28;20026;-75
2023/03/28 09:02:39;;;;;;;;;;;;;;;7.21;70.67;102702.59;5036559;28;20068;-75
2023/03/28 09:05:05;;;;;;;6.05;2.53;;;;;;;7.22;70.29;102696.41;5036716;28;19909;-77
2023/03/28 09:07:55;;;;;;;6.35;3.00;;;;;;;7.27;71.14;102683.81;5035880;28;20033;-76
2023/03/28 09:10:36;;;;;;;10.02;3.75;;;;;;;7.32;67.38;102686.25;5036609;28;20060;-77
2023/03/28 09:13:16;;;;;;;7.40;2.70;;;;;;;7.44;62.23;102685.66;5035923;28;20022;-77
2023/03/28 09:16:05;;;;;;;6.97;3.05;;;;;;;7.82;65.42;102685.56;5035920;28;20462;-77
2023/03/28 09:18:41;;;;;;;10.88;3.15;;;;;;;7.90;59.16;102686.06;5035894;28;20124;-80
2023/03/28 09:21:22;;;;;;;9.68;3.15;;;;;;;7.99;60.24;102679.44;5036080;28;20112;-76
2023/03/28 09:24:05;;;;;;;8.25;2.90;;;;;;;8.49;59.28;102671.63;5035899;28;20087;-81
2023/03/28 09:26:36;;;;;;;9.32;2.92;;;;;;;8.44;59.99;102653.31;5035555;28;20033;-83
2023/03/28 09:29:15;;;;;;;8.52;3.05;;;;;;;8.13;56.19;102660.16;5035678;28;20025;-76
2023/03/28 09:31:45;;;;;;;5.13;2.50;;;;;;;8.09;59.46;102664.78;5035477;28;20021;-80
2023/03/28 09:34:26;;;;;;;5.45;2.22;;;;;;;7.94;58.69;102665.53;5035579;28;20039;-81
2023/03/28 09:36:54;;;;;;;12.20;2.60;;;;;;;7.74;57.56;102664.75;5035638;28;20038;-80
2023/03/28 09:39:36;;;;;;;8.90;2.90;;;;;;;7.28;57.39;102655.53;5050726;28;20388;-80
2023/03/28 09:42:29;;;;;;;7.90;2.42;;;;;;;7.07;60.54;102645.88;5035759;28;20038;-79
2023/03/28 09:45:13;;;;;;;7.72;2.70;;;;;;;7.36;61.81;102646.31;5025490;28;20132;-80
2023/03/28 09:47:40;;;;;;;10.82;2.80;;;;;;;7.65;59.50;102651.97;5035616;28;20033;-81
2023/03/28 09:50:11;;;;;;;9.63;2.50;;;;;;;8.00;56.21;102652.00;5017898;28;20043;-80
2023/03/28 09:52:37;;;;;;;;;;;;;;;8.09;56.16;102645.34;5018289;28;20132;-79
2023/03/28 09:55:02;;;;;;;8.00;2.50;;;;;;;8.23;56.74;102644.66;5034295;28;20376;-79
2023/03/28 09:58:05;;;;;;;7.90;2.85;;;;;;;7.93;52.56;102632.03;5034834;28;20036;-79
2023/03/28 10:00:42;;;;;;;6.65;2.30;;;;;;;8.01;55.50;102634.28;5017067;28;20029;-79
2023/03/28 10:03:28;;;;;;;5.32;2.00;;;;;;;7.83;54.54;102636.09;5034866;28;20029;-78
2023/03/28 10:06:16;;;;;;;4.45;2.45;;;;;;;7.50;53.47;102637.69;5034827;28;20067;-79
2023/03/28 10:08:42;;;;;;;6.53;2.30;;;;;;;7.24;54.81;102628.38;5035120;28;20372;-78
2023/03/28 10:11:13;;;;;;;6.40;2.20;;;;;;;7.50;57.77;102631.53;5033924;28;20113;-79
2023/03/28 10:13:41;;;;;;;8.25;2.67;;;;;;;7.65;55.84;102616.66;5034515;28;20061;-77
2023/03/28 10:16:09;;;;;;;5.03;2.25;;;;;;;7.62;52.95;102614.19;5034500;28;20030;-80
2023/03/28 10:18:37;;;;;;;6.47;2.58;;;;;;;7.99;54.30;102610.50;5034645;28;20125;-77
2023/03/28 10:21:12;;;;;;;10.27;2.42;;;;;;;8.42;52.24;102596.78;5034430;28;20457;-80
2023/03/28 10:23:40;;;;;;;5.97;2.25;;;;;;;8.37;49.16;102596.19;5034700;28;20025;-81
2023/03/28 10:26:11;;;;;;;5.63;1.95;;;;;;;8.45;48.57;102601.97;5035052;28;20083;-78
2023/03/28 10:28:37;;;;;;;4.63;2.20;;;;;;;8.94;48.72;102596.66;5035009;28;20034;-78
2023/03/28 10:31:03;;;;;;;5.53;1.90;;;;;;;8.78;45.65;102577.19;5034679;28;20037;-78
2023/03/28 10:33:56;;;;;;;6.20;2.15;;;;;;;8.78;47.93;102579.84;5034358;28;20029;-77
2023/03/28 10:36:30;;;;;;;4.57;2.38;;;;;;;8.25;48.41;102584.44;5030968;28;20092;-77
2023/03/28 10:38:56;;;;;;;6.30;2.42;;;;;;;8.07;49.63;102573.00;5034246;28;20113;-77
2023/03/28 10:41:30;;;;;;;4.20;1.77;;;;;;;7.84;47.64;102575.06;5034099;28;20029;-77
2023/03/28 10:43:55;;;;;;;7.53;1.83;;;;;;;7.59;49.88;102571.00;5034750;28;20029;-77
2023/03/28 10:46:35;;;;;;;5.80;2.00;;;;;;;7.70;48.97;102573.13;5016402;28;20067;-78
2023/03/28 10:49:04;;;;;;;5.22;1.80;;;;;;;7.92;47.43;102562.25;5034447;28;20069;-80
2023/03/28 10:51:31;;;;;;;6.22;1.83;;;;;;;8.14;46.36;102563.78;5034045;28;20040;-78
2023/03/28 10:54:11;;;;;;;4.13;1.95;;;;;;;8.23;46.28;102565.94;5034668;28;20076;-79
2023/03/28 10:56:41;;;;;;;10.25;2.00;;;;;;;8.29;46.34;102567.41;5033896;28;20483;-78
2023/03/28 10:59:18;;;;;;;12.13;2.20;;;;;;;8.87;48.51;102568.72;5016509;28;20033;-77
2023/03/28 11:02:14;;;;;;;9.32;2.15;;;;;;;8.85;48.61;102567.94;5033553;28;20355;-79
2023/03/28 11:05:04;;;;;;;5.05;2.13;;;;;;;8.16;47.95;102561.91;5033802;28;20040;-78
2023/03/28 11:07:52;;;;;;;4.18;2.10;;;;;;;7.60;49.81;102548.03;5033370;28;20033;-78
2023/03/28 11:10:17;;;;;;;10.98;2.60;;;;;;;7.51;51.87;102561.72;5033898;28;20034;-78
2023/03/28 11:13:22;;;;;;;6.28;2.35;;;;;;;7.17;49.40;102548.34;5033642;28;20528;-78
2023/03/28 11:16:11;;;;;;;7.25;2.53;;;;;;;7.14;53.07;102548.50;5032599;28;20045;-78
2023/03/28 11:18:39;;;;;;;8.43;3.05;;;;;;;7.05;51.44;102546.31;5033852;28;20029;-78
2023/03/28 11:21:22;;;;;;;6.43;2.97;;;;;;;6.94;51.68;102553.91;5033472;28;20033;-78
2023/03/28 11:24:13;;;;;;;6.38;3.10;;;;;;;6.77;52.84;102530.91;5034281;28;20029;-78
2023/03/28 11:26:41;;;;;;;6.20;3.03;;;;;;;6.51;54.40;102523.25;5033537;28;20040;-76
2023/03/28 11:29:31;;;;;;;6.32;3.25;;;;;;;6.65;56.17;102517.31;5033144;28;20029;-75
2023/03/28 11:32:17;;;;;;;9.90;3.72;;;;;;;6.66;55.35;102507.63;5033244;28;20048;-76
2023/03/28 11:35:02;;;;;;;9.50;3.58;;;;;;;7.00;56.39;102493.63;5033432;28;20025;-78
2023/03/28 11:37:33;;;;;;;10.55;3.83;;;;;;;7.40;57.40;102485.44;5033265;28;20544;-75
2023/03/28 11:40:26;;;;;;;17.13;4.97;;;;;;;7.66;56.88;102488.53;5033604;28;20112;-76